createdAt,value
2023-06-09T00:00:08.528Z,7.10
2023-06-09T00:02:36.337Z,6.33
2023-06-09T00:05:04.251Z,6.40
2023-06-09T00:07:34.955Z,6.60
2023-06-09T00:10:04.451Z,6.40
2023-06-09T00:12:32.284Z,6.83
2023-06-09T00:15:00.324Z,6.67
2023-06-09T00:17:28.247Z,6.40
2023-06-09T00:20:02.542Z,6.20
2023-06-09T00:22:30.414Z,6.90
2023-06-09T00:24:58.038Z,6.13
2023-06-09T00:27:27.186Z,7.30
2023-06-09T00:29:55.149Z,6.27
2023-06-09T00:32:22.875Z,6.30
2023-06-09T00:34:51.795Z,6.67
2023-06-09T00:37:19.527Z,7.70
2023-06-09T00:39:47.321Z,6.40
2023-06-09T00:42:16.634Z,6.87
2023-06-09T00:44:45.603Z,6.90
2023-06-09T00:47:13.365Z,7.50
2023-06-09T00:49:41.217Z,6.63
2023-06-09T00:52:09.269Z,7.07
2023-06-09T00:54:37.050Z,6.53
2023-06-09T00:57:05.046Z,6.47
2023-06-09T00:59:33.384Z,6.77
2023-06-09T01:02:06.758Z,8.40
2023-06-09T01:04:37.715Z,7.17
2023-06-09T01:07:11.157Z,6.37
2023-06-09T01:09:45.168Z,6.47
2023-06-09T01:12:18.090Z,7.37
2023-06-09T01:14:49.837Z,8.13
2023-06-09T01:17:20.335Z,8.73
2023-06-09T01:19:51.809Z,7.67
2023-06-09T01:22:29.592Z,7.37
2023-06-09T01:25:06.045Z,6.90
2023-06-09T01:27:37.480Z,8.07
2023-06-09T01:30:07.860Z,8.10
2023-06-09T01:32:36.685Z,8.77
2023-06-09T01:35:05.018Z,7.93
2023-06-09T01:37:33.620Z,7.20
2023-06-09T01:40:02.561Z,7.10
2023-06-09T01:42:31.148Z,7.13
2023-06-09T01:45:00.596Z,7.60
2023-06-09T01:47:28.719Z,7.90
2023-06-09T01:50:00.311Z,7.50
2023-06-09T01:52:33.482Z,8.90
2023-06-09T01:55:05.309Z,9.20
2023-06-09T01:57:35.326Z,8.60
2023-06-09T02:00:06.166Z,8.80
2023-06-09T02:02:43.002Z,8.53
2023-06-09T02:05:13.012Z,10.03
2023-06-09T02:07:42.380Z,9.50
2023-06-09T02:10:11.426Z,11.17
2023-06-09T02:12:39.508Z,10.17
2023-06-09T02:15:10.019Z,9.73
2023-06-09T02:17:37.870Z,9.90
2023-06-09T02:20:06.988Z,10.93
2023-06-09T02:22:34.956Z,12.33
2023-06-09T02:25:02.857Z,11.27
2023-06-09T02:27:30.637Z,11.40
2023-06-09T02:29:58.393Z,10.17
2023-06-09T02:32:27.573Z,9.40
2023-06-09T02:34:55.235Z,11.33
2023-06-09T02:37:23.716Z,9.53
2023-06-09T02:39:51.509Z,10.90
2023-06-09T02:42:19.226Z,10.90
2023-06-09T02:44:49.800Z,10.77
2023-06-09T02:47:17.808Z,12.03
2023-06-09T02:49:46.846Z,10.27
2023-06-09T02:52:14.590Z,9.60
2023-06-09T02:54:42.370Z,8.47
2023-06-09T02:57:13.524Z,9.00
2023-06-09T02:59:41.857Z,9.20
2023-06-09T03:02:10.098Z,9.00
2023-06-09T03:04:39.090Z,9.73
2023-06-09T03:07:10.472Z,8.73
2023-06-09T03:09:38.725Z,9.10
2023-06-09T03:12:08.425Z,8.20
2023-06-09T03:14:37.824Z,8.77
2023-06-09T03:17:06.652Z,9.90
2023-06-09T03:19:35.818Z,9.33
2023-06-09T03:22:05.128Z,8.37
2023-06-09T03:24:38.331Z,8.90
2023-06-09T03:27:07.732Z,9.30
2023-06-09T03:29:35.376Z,8.70
2023-06-09T03:32:03.288Z,8.83
2023-06-09T03:34:31.765Z,8.87
2023-06-09T03:37:02.893Z,8.30
2023-06-09T03:39:30.543Z,8.70
2023-06-09T03:42:00.286Z,7.90
2023-06-09T03:44:29.249Z,8.00
2023-06-09T03:46:57.148Z,8.23
2023-06-09T03:49:25.014Z,9.50
2023-06-09T03:51:52.735Z,8.43
2023-06-09T03:54:21.176Z,8.13
2023-06-09T03:56:49.700Z,8.17
2023-06-09T03:59:19.517Z,8.77
2023-06-09T04:01:47.541Z,8.77
2023-06-09T04:04:16.099Z,8.13
2023-06-09T04:06:46.690Z,7.57
2023-06-09T04:09:16.430Z,8.17
2023-06-09T04:11:44.146Z,7.53
2023-06-09T04:14:12.815Z,7.13
2023-06-09T04:16:42.714Z,7.80
2023-06-09T04:19:11.435Z,7.30
2023-06-09T04:21:40.255Z,6.83
2023-06-09T04:24:09.675Z,7.80
2023-06-09T04:26:39.901Z,7.57
2023-06-09T04:29:10.647Z,7.07
2023-06-09T04:31:43.241Z,7.37
2023-06-09T04:34:14.050Z,7.10
2023-06-09T04:36:46.564Z,6.60
2023-06-09T04:39:16.305Z,7.53
2023-06-09T04:41:45.738Z,6.93
2023-06-09T04:44:14.959Z,7.37
2023-06-09T04:46:44.555Z,7.13
2023-06-09T04:49:16.661Z,6.73
2023-06-09T04:51:49.787Z,6.03
2023-06-09T04:54:30.267Z,6.37
2023-06-09T04:57:03.226Z,6.03
2023-06-09T04:59:33.049Z,8.70
2023-06-09T05:02:01.775Z,7.23
2023-06-09T05:04:32.474Z,7.77
2023-06-09T05:07:01.988Z,6.80
2023-06-09T05:09:30.164Z,7.10
2023-06-09T05:11:58.070Z,6.17
2023-06-09T05:14:27.347Z,6.23
2023-06-09T05:16:56.026Z,6.43
2023-06-09T05:19:24.260Z,5.90
2023-06-09T05:21:53.328Z,6.37
2023-06-09T05:24:21.376Z,6.40
2023-06-09T05:26:49.251Z,5.63
2023-06-09T05:29:16.956Z,7.03
2023-06-09T05:31:44.713Z,5.43
2023-06-09T05:34:13.263Z,32.47
2023-06-09T05:36:41.084Z,7.30
2023-06-09T05:39:12.143Z,5.50
2023-06-09T05:41:40.101Z,5.27
2023-06-09T05:44:07.789Z,6.20
2023-06-09T05:46:38.802Z,6.20
2023-06-09T05:49:07.101Z,5.07
2023-06-09T05:51:35.416Z,4.87
2023-06-09T05:54:03.196Z,6.57
2023-06-09T05:56:32.179Z,5.23
2023-06-09T05:59:04.331Z,6.10
2023-06-09T06:01:32.256Z,5.37
2023-06-09T06:04:00.246Z,4.80
2023-06-09T06:06:28.176Z,5.50
2023-06-09T06:08:55.812Z,5.30
2023-06-09T06:11:23.737Z,4.90
2023-06-09T06:13:52.706Z,5.47
2023-06-09T06:16:20.487Z,5.10
2023-06-09T06:18:48.297Z,5.13
2023-06-09T06:21:16.101Z,4.87
2023-06-09T06:23:43.834Z,5.03
2023-06-09T06:26:11.804Z,6.93
2023-06-09T06:28:39.588Z,4.63
2023-06-09T06:31:09.405Z,4.90
2023-06-09T06:33:37.150Z,5.10
2023-06-09T06:36:07.239Z,4.70
2023-06-09T06:38:35.589Z,5.47
2023-06-09T06:41:04.850Z,5.27
2023-06-09T06:43:32.553Z,5.17
2023-06-09T06:46:08.373Z,5.50
2023-06-09T06:48:36.582Z,5.93
2023-06-09T06:51:05.541Z,5.30
2023-06-09T06:53:33.214Z,4.00
2023-06-09T06:56:01.008Z,4.73
2023-06-09T06:58:29.358Z,5.17
2023-06-09T07:00:57.343Z,5.23
2023-06-09T07:03:27.280Z,5.23
2023-06-09T07:05:55.734Z,5.13
2023-06-09T07:08:23.464Z,5.67
2023-06-09T07:10:51.636Z,5.40
2023-06-09T07:13:19.457Z,6.00
2023-06-09T07:15:47.429Z,6.10
2023-06-09T07:18:16.109Z,5.67
2023-06-09T07:20:46.157Z,5.90
2023-06-09T07:23:13.962Z,8.20
2023-06-09T07:25:42.260Z,5.33
2023-06-09T07:28:10.112Z,5.30
2023-06-09T07:30:38.428Z,5.40
2023-06-09T07:33:08.267Z,5.90
2023-06-09T07:35:36.952Z,6.00
2023-06-09T07:38:06.913Z,6.60
2023-06-09T07:40:36.272Z,5.77
2023-06-09T07:43:04.599Z,5.87
2023-06-09T07:45:33.610Z,5.40
2023-06-09T07:48:02.269Z,5.43
2023-06-09T07:50:31.552Z,5.80
2023-06-09T07:53:04.724Z,5.47
2023-06-09T07:55:34.947Z,5.43
2023-06-09T07:58:03.708Z,5.77
2023-06-09T08:00:32.352Z,5.43
2023-06-09T08:03:04.123Z,5.37
2023-06-09T08:05:35.166Z,5.20
2023-06-09T08:08:05.819Z,5.73
2023-06-09T08:10:35.623Z,5.27
2023-06-09T08:13:04.142Z,6.00
2023-06-09T08:15:32.447Z,5.77
2023-06-09T08:18:00.754Z,5.83
2023-06-09T08:20:29.806Z,5.60
2023-06-09T08:22:58.372Z,5.60
2023-06-09T08:25:26.702Z,5.97
2023-06-09T08:27:56.302Z,6.00
2023-06-09T08:30:25.042Z,6.07
2023-06-09T08:32:53.159Z,6.23
2023-06-09T08:35:22.705Z,5.17
2023-06-09T08:37:51.846Z,5.70
2023-06-09T08:40:20.371Z,5.70
2023-06-09T08:42:50.697Z,5.80
2023-06-09T08:45:20.654Z,5.20
2023-06-09T08:47:50.083Z,5.10
2023-06-09T08:50:19.941Z,5.13
2023-06-09T08:52:47.718Z,6.70
2023-06-09T08:55:16.199Z,4.87
2023-06-09T08:57:44.501Z,4.77
2023-06-09T09:00:13.828Z,5.37
2023-06-09T09:02:44.331Z,5.87
2023-06-09T09:05:12.237Z,5.30
2023-06-09T09:07:40.975Z,4.87
2023-06-09T09:10:09.167Z,4.90
2023-06-09T09:12:47.319Z,4.90
2023-06-09T09:15:15.103Z,4.40
2023-06-09T09:17:46.661Z,4.80
2023-06-09T09:20:15.833Z,5.10
2023-06-09T09:22:50.777Z,3.97
2023-06-09T09:25:26.742Z,5.83
2023-06-09T09:28:06.122Z,4.80
2023-06-09T09:30:43.287Z,4.27
2023-06-09T09:33:12.745Z,5.07
2023-06-09T09:35:41.817Z,5.50
2023-06-09T09:38:14.450Z,5.23
2023-06-09T09:40:46.996Z,4.97
2023-06-09T09:43:15.791Z,4.63
2023-06-09T09:45:47.315Z,5.03
2023-06-09T09:48:19.100Z,5.27
2023-06-09T09:50:48.905Z,4.57
2023-06-09T09:53:17.223Z,5.43
2023-06-09T09:55:46.377Z,5.00
2023-06-09T09:58:17.968Z,4.47
2023-06-09T10:00:48.115Z,5.20
2023-06-09T10:03:18.710Z,4.57
2023-06-09T10:05:48.166Z,4.70
2023-06-09T10:08:20.528Z,4.80
2023-06-09T10:10:48.412Z,4.70
2023-06-09T10:13:19.096Z,4.40
2023-06-09T10:15:46.876Z,5.30
2023-06-09T10:18:14.935Z,4.20
2023-06-09T10:20:45.227Z,4.57
2023-06-09T10:23:13.318Z,4.77
2023-06-09T10:25:41.244Z,5.50
2023-06-09T10:28:09.776Z,5.80
2023-06-09T10:30:40.307Z,4.20
2023-06-09T10:33:12.952Z,4.93
2023-06-09T10:35:42.013Z,4.07
2023-06-09T10:38:29.739Z,4.97
2023-06-09T10:41:06.728Z,4.70
2023-06-09T10:44:17.644Z,5.03
2023-06-09T10:46:47.328Z,5.03
2023-06-09T10:49:41.028Z,4.90
2023-06-09T10:52:11.243Z,4.70
2023-06-09T10:54:40.422Z,5.37
2023-06-09T10:57:37.308Z,3.80
2023-06-09T11:00:17.145Z,4.57
2023-06-09T11:02:48.103Z,4.13
2023-06-09T11:05:17.340Z,4.10
2023-06-09T11:07:52.889Z,3.90
2023-06-09T11:10:30.932Z,4.77
2023-06-09T11:12:59.200Z,5.27
2023-06-09T11:16:02.700Z,4.20
2023-06-09T11:18:32.617Z,4.30
2023-06-09T11:21:22.397Z,4.87
2023-06-09T11:24:04.468Z,5.20
2023-06-09T11:26:35.191Z,4.67
2023-06-09T11:29:05.451Z,4.67
2023-06-09T11:31:49.785Z,3.70
2023-06-09T11:34:56.719Z,4.10
2023-06-09T11:37:25.863Z,4.50
2023-06-09T11:39:54.205Z,4.73
2023-06-09T11:42:23.490Z,4.03
2023-06-09T11:44:52.041Z,4.07
2023-06-09T11:47:30.695Z,3.50
2023-06-09T11:50:07.411Z,4.53
2023-06-09T11:52:36.076Z,4.30
2023-06-09T11:55:05.615Z,4.40
2023-06-09T11:57:35.264Z,3.80
2023-06-09T12:00:10.631Z,5.30
2023-06-09T12:02:41.073Z,3.70
2023-06-09T12:05:10.046Z,4.60
2023-06-09T12:07:37.858Z,3.83
2023-06-09T12:10:06.742Z,4.13
2023-06-09T12:12:45.027Z,3.67
2023-06-09T12:15:13.439Z,3.63
2023-06-09T12:17:42.201Z,4.40
2023-06-09T12:20:29.900Z,3.83
2023-06-09T12:23:02.950Z,3.77
2023-06-09T12:25:34.530Z,3.00
2023-06-09T12:28:17.312Z,3.93
2023-06-09T12:30:48.857Z,3.97
2023-06-09T12:33:18.609Z,4.10
2023-06-09T12:35:48.153Z,4.10
2023-06-09T12:38:17.241Z,4.03
2023-06-09T12:40:46.813Z,3.17
2023-06-09T12:43:16.242Z,2.87
2023-06-09T12:45:44.294Z,3.80
2023-06-09T12:48:12.587Z,3.80
2023-06-09T12:50:41.444Z,3.20
2023-06-09T12:53:09.996Z,3.27
2023-06-09T12:55:38.473Z,3.30
2023-06-09T12:58:07.572Z,3.60
2023-06-09T13:00:37.471Z,3.37
2023-06-09T13:03:06.561Z,3.80
2023-06-09T13:05:34.551Z,3.20
2023-06-09T13:08:03.946Z,3.50
2023-06-09T13:10:32.180Z,4.20
2023-06-09T13:13:00.006Z,4.43
2023-06-09T13:15:27.874Z,4.27
2023-06-09T13:17:57.438Z,3.67
2023-06-09T13:20:25.199Z,3.70
2023-06-09T13:22:53.262Z,4.10
2023-06-09T13:25:21.373Z,3.20
2023-06-09T13:27:49.932Z,4.37
2023-06-09T13:30:19.123Z,2.83
2023-06-09T13:32:46.892Z,3.87
2023-06-09T13:35:18.360Z,3.87
2023-06-09T13:37:51.528Z,3.67
2023-06-09T13:40:20.259Z,3.90
2023-06-09T13:42:53.815Z,3.13
2023-06-09T13:45:21.941Z,4.13
2023-06-09T13:47:49.974Z,3.80
2023-06-09T13:50:21.157Z,3.73
2023-06-09T13:52:52.298Z,4.23
2023-06-09T13:55:20.344Z,4.27
2023-06-09T13:57:48.023Z,3.67
2023-06-09T14:00:16.498Z,4.23
2023-06-09T14:02:44.579Z,2.90
2023-06-09T14:05:14.531Z,3.87
2023-06-09T14:07:45.848Z,4.07
2023-06-09T14:10:15.694Z,3.90
2023-06-09T14:12:48.510Z,3.50
2023-06-09T14:15:27.167Z,3.60
2023-06-09T14:17:58.558Z,4.40
2023-06-09T14:20:27.931Z,4.20
2023-06-09T14:22:59.962Z,3.50
2023-06-09T14:25:28.872Z,3.23
2023-06-09T14:27:57.148Z,3.70
2023-06-09T14:30:25.483Z,3.60
2023-06-09T14:32:54.692Z,3.10
2023-06-09T14:35:25.332Z,3.07
2023-06-09T14:37:54.886Z,3.50
2023-06-09T14:40:24.891Z,3.17
2023-06-09T14:42:53.188Z,3.57
2023-06-09T14:45:23.009Z,4.70
2023-06-09T14:47:53.127Z,3.40
2023-06-09T14:50:25.592Z,3.67
2023-06-09T14:52:56.814Z,3.87
2023-06-09T14:55:27.863Z,3.80
2023-06-09T14:57:56.811Z,4.53
2023-06-09T15:00:25.999Z,4.30
2023-06-09T15:02:57.421Z,3.60
2023-06-09T15:05:27.965Z,4.00
2023-06-09T15:08:08.404Z,3.60
2023-06-09T15:10:42.678Z,3.50
2023-06-09T15:13:12.337Z,3.77
2023-06-09T15:15:40.284Z,3.27
2023-06-09T15:18:09.930Z,3.80
2023-06-09T15:20:39.662Z,3.97
2023-06-09T15:23:08.247Z,3.57
2023-06-09T15:25:38.359Z,4.10
2023-06-09T15:28:09.761Z,3.57
2023-06-09T15:30:38.989Z,5.30
2023-06-09T15:33:08.836Z,4.03
2023-06-09T15:35:38.073Z,4.07
2023-06-09T15:38:07.540Z,3.90
2023-06-09T15:40:38.952Z,3.60
2023-06-09T15:43:08.044Z,4.40
2023-06-09T15:45:38.961Z,4.50
2023-06-09T15:48:07.462Z,4.30
2023-06-09T15:50:35.954Z,3.90
2023-06-09T15:53:03.736Z,4.90
2023-06-09T15:55:31.558Z,4.70
2023-06-09T15:58:01.142Z,5.20
2023-06-09T16:00:32.386Z,5.27
2023-06-09T16:03:05.540Z,4.67
2023-06-09T16:05:34.841Z,5.17
2023-06-09T16:08:03.895Z,4.80
2023-06-09T16:10:32.468Z,5.70
2023-06-09T16:13:02.632Z,4.80
2023-06-09T16:15:35.070Z,5.00
2023-06-09T16:18:04.777Z,4.47
2023-06-09T16:20:34.437Z,4.80
2023-06-09T16:23:03.308Z,6.50
2023-06-09T16:25:32.973Z,4.80
2023-06-09T16:28:01.345Z,5.97
2023-06-09T16:30:29.595Z,5.20
2023-06-09T16:37:54.972Z,4.60
2023-06-09T16:47:15.206Z,5.03
2023-06-09T16:50:18.960Z,5.63
2023-06-09T16:52:50.851Z,5.00
2023-06-09T16:55:40.517Z,4.83
2023-06-09T16:58:13.599Z,4.90
2023-06-09T17:00:53.412Z,5.00
2023-06-09T17:03:21.464Z,4.37
2023-06-09T17:05:52.082Z,4.43
2023-06-09T17:08:21.602Z,5.50
2023-06-09T17:10:49.365Z,4.90
2023-06-09T17:13:17.551Z,4.80
2023-06-09T17:15:45.966Z,4.00
2023-06-09T17:18:14.020Z,4.43
2023-06-09T17:20:42.423Z,4.20
2023-06-09T17:23:16.874Z,4.10
2023-06-09T17:25:52.592Z,4.07
2023-06-09T17:28:25.275Z,4.00
2023-06-09T17:30:53.505Z,5.67
2023-06-09T17:33:26.086Z,3.83
2023-06-09T17:35:53.992Z,4.10
2023-06-09T17:38:21.836Z,4.23
2023-06-09T17:40:50.560Z,4.23
2023-06-09T17:43:23.903Z,4.30
2023-06-09T17:45:55.335Z,3.83
2023-06-09T17:48:26.555Z,3.90
2023-06-09T17:50:54.576Z,4.17
2023-06-09T17:53:27.988Z,3.80
2023-06-09T17:55:58.832Z,3.90
2023-06-09T17:58:27.880Z,5.03
2023-06-09T18:00:55.712Z,3.80
2023-06-09T18:03:26.820Z,3.40
2023-06-09T18:05:58.236Z,3.80
2023-06-09T18:08:32.713Z,3.80
2023-06-09T18:11:00.930Z,4.00
2023-06-09T18:13:33.644Z,3.83
2023-06-09T18:16:02.252Z,3.60
2023-06-09T18:18:30.760Z,3.70
2023-06-09T18:21:07.429Z,3.20
2023-06-09T18:23:40.410Z,3.20
2023-06-09T18:26:21.576Z,2.80
2023-06-09T18:28:51.649Z,3.47
2023-06-09T18:31:20.496Z,2.87
2023-06-09T18:33:49.159Z,3.17
2023-06-09T18:36:17.890Z,3.50
2023-06-09T18:38:45.696Z,2.80
2023-06-09T18:41:13.712Z,2.60
2023-06-09T18:43:46.806Z,3.13
2023-06-09T18:46:16.305Z,2.77
2023-06-09T18:48:59.717Z,3.10
2023-06-09T18:51:33.015Z,3.47
2023-06-09T18:54:02.960Z,2.83
2023-06-09T18:56:30.885Z,3.70
2023-06-09T18:59:00.009Z,3.30
2023-06-09T19:01:29.832Z,2.93
2023-06-09T19:04:24.087Z,3.70
2023-06-09T19:06:52.527Z,2.97
2023-06-09T19:09:32.432Z,3.57
2023-06-09T19:12:00.416Z,3.13
2023-06-09T19:14:28.296Z,3.70
2023-06-09T19:17:04.397Z,3.40
2023-06-09T19:19:32.755Z,3.63
2023-06-09T19:22:00.870Z,4.50
2023-06-09T19:24:28.892Z,3.90
2023-06-09T19:26:59.272Z,3.70
2023-06-09T19:29:30.830Z,3.93
2023-06-09T19:32:06.102Z,3.93
2023-06-09T19:34:34.370Z,3.77
2023-06-09T19:37:03.839Z,4.13
2023-06-09T19:39:32.651Z,4.30
2023-06-09T20:04:00.574Z,3.90
2023-06-09T20:06:53.305Z,4.50
2023-06-09T20:09:30.587Z,4.43
2023-06-09T20:12:01.748Z,3.97
2023-06-09T20:14:29.944Z,4.10
2023-06-09T20:16:59.074Z,4.87
2023-06-09T20:27:13.331Z,4.80
2023-06-09T20:30:21.668Z,4.67
2023-06-09T20:43:57.417Z,3.70
2023-06-09T20:46:40.424Z,5.03
2023-06-09T20:50:24.035Z,4.80
2023-06-09T20:53:42.760Z,5.77
2023-06-09T20:56:56.030Z,5.40
2023-06-09T21:00:22.867Z,5.40
2023-06-09T21:04:07.057Z,5.43
2023-06-09T21:07:12.445Z,5.60
2023-06-09T21:10:18.455Z,4.83
2023-06-09T21:16:04.131Z,5.70
2023-06-09T21:18:32.844Z,5.13
2023-06-09T21:21:00.742Z,5.03
2023-06-09T21:23:28.709Z,5.20
2023-06-09T21:25:56.340Z,4.50
2023-06-09T21:28:50.953Z,5.33
2023-06-09T21:31:58.640Z,4.93
2023-06-09T21:34:41.557Z,5.27
2023-06-09T21:37:09.784Z,5.27
2023-06-09T21:39:48.650Z,5.03
2023-06-09T21:42:23.061Z,7.43
2023-06-09T21:45:01.306Z,5.83
2023-06-09T21:47:35.972Z,4.13
2023-06-09T21:50:23.305Z,5.50
2023-06-09T21:52:54.432Z,5.83
2023-06-09T21:55:25.564Z,6.57
2023-06-09T21:58:14.386Z,6.07
2023-06-09T22:01:18.407Z,6.87
2023-06-09T22:03:51.705Z,4.90
2023-06-09T22:07:10.999Z,4.97
2023-06-09T22:10:03.093Z,5.30
2023-06-09T22:12:54.422Z,5.73
2023-06-09T22:22:44.303Z,5.70
2023-06-09T22:25:34.278Z,5.67
2023-06-09T22:28:21.696Z,6.27
2023-06-09T22:31:14.954Z,6.30
2023-06-09T22:33:57.119Z,5.10
2023-06-09T22:38:20.182Z,6.20
2023-06-09T22:40:55.830Z,5.50
2023-06-09T22:43:27.435Z,6.60
2023-06-09T22:49:10.430Z,5.70
2023-06-09T22:51:41.224Z,6.20
2023-06-09T22:54:13.369Z,5.03
2023-06-09T22:56:50.725Z,5.80
2023-06-09T22:59:19.704Z,5.13
2023-06-09T23:01:48.140Z,5.93
2023-06-09T23:04:19.533Z,5.60
2023-06-09T23:06:49.185Z,4.87
2023-06-09T23:09:17.352Z,4.97
2023-06-09T23:11:46.307Z,5.30
2023-06-09T23:14:15.910Z,6.30
2023-06-09T23:16:53.827Z,5.40
2023-06-09T23:19:58.251Z,5.67
2023-06-09T23:22:55.843Z,4.70
2023-06-09T23:25:36.457Z,6.60
2023-06-09T23:29:01.580Z,5.87
2023-06-09T23:32:28.422Z,5.43
2023-06-09T23:40:19.797Z,6.07
2023-06-09T23:44:19.456Z,5.80
2023-06-09T23:53:58.853Z,6.07
2023-06-09T23:56:26.848Z,5.37
2023-06-09T23:58:54.479Z,6.10
